Time;durP1;ratioP1;P1;durP2;ratioP2;P2;SDS_P1;SDS_P2;PMS_P1;PMS_P2;Temp;Humidity;BMP_temperature;BMP_pressure;BME280_temperature;BME280_humidity;BME280_pressure;Samples;Min_cycle;Max_cycle;Signal;HPM_P1;HPM_P2
2022/09/09 00:00:34;;;;;;;9.43;5.78;;;13.70;99.90;;;;;;5046331;28;20045;-91
2022/09/09 00:03:14;;;;;;;11.30;5.80;;;13.70;99.90;;;;;;5017310;28;20061;-91
2022/09/09 00:06:01;;;;;;;6.55;5.00;;;13.60;99.90;;;;;;5053728;28;20087;-90
2022/09/09 00:08:50;;;;;;;8.80;5.68;;;13.60;99.90;;;;;;5036290;28;20060;-91
2022/09/09 00:11:41;;;;;;;11.88;5.97;;;13.60;99.90;;;;;;5055479;28;20084;-90
2022/09/09 00:14:28;;;;;;;9.48;5.75;;;13.70;99.90;;;;;;5030941;28;20514;-90
2022/09/09 00:16:59;;;;;;;9.63;5.55;;;13.60;99.90;;;;;;5054181;28;20072;-90
2022/09/09 00:19:38;;;;;;;9.63;5.65;;;13.60;99.90;;;;;;5055057;28;20045;-90
2022/09/09 00:22:19;;;;;;;11.65;6.25;;;13.60;99.90;;;;;;5054718;28;20069;-91
2022/09/09 00:24:54;;;;;;;11.65;5.90;;;13.60;99.90;;;;;;5037499;28;20076;-90
2022/09/09 00:27:31;;;;;;;9.20;6.30;;;13.60;99.90;;;;;;5037554;28;20470;-90
2022/09/09 00:30:12;;;;;;;11.23;6.07;;;13.70;99.90;;;;;;5037051;28;20053;-90
2022/09/09 00:32:37;;;;;;;10.00;5.82;;;13.70;99.90;;;;;;5055099;28;20051;-91
2022/09/09 00:35:15;;;;;;;10.82;6.35;;;13.80;99.90;;;;;;5020718;28;20486;-91
2022/09/09 00:37:43;;;;;;;8.45;5.55;;;13.80;99.90;;;;;;5054568;28;20045;-90
2022/09/09 00:40:34;;;;;;;9.80;5.43;;;13.90;99.90;;;;;;5036944;28;20076;-91
2022/09/09 00:43:31;;;;;;;12.52;5.72;;;14.00;99.90;;;;;;5020494;28;20502;-90
2022/09/09 00:46:32;;;;;;;9.90;5.82;;;14.00;99.90;;;;;;5054750;28;20048;-90
2022/09/09 00:49:25;;;;;;;11.38;5.60;;;14.10;99.90;;;;;;5053106;28;20052;-91
2022/09/09 00:52:22;;;;;;;9.48;4.90;;;14.10;99.90;;;;;;5053773;28;20049;-90
2022/09/09 00:55:03;;;;;;;10.95;6.30;;;14.10;99.90;;;;;;5053583;28;20056;-90
2022/09/09 00:57:35;;;;;;;13.57;5.90;;;14.20;99.90;;;;;;5020798;28;20049;-90
2022/09/09 01:00:23;;;;;;;19.33;6.78;;;14.20;99.90;;;;;;5054268;28;20056;-90
2022/09/09 01:02:58;;;;;;;15.90;7.55;;;14.20;99.90;;;;;;5054522;28;20086;-90
2022/09/09 01:05:34;;;;;;;14.95;6.30;;;14.20;99.90;;;;;;5026703;28;20111;-90
2022/09/09 01:08:05;;;;;;;13.88;7.32;;;14.20;99.90;;;;;;5034662;28;20045;-91
2022/09/09 01:10:53;;;;;;;11.30;7.03;;;14.10;99.90;;;;;;5052060;28;20098;-91
2022/09/09 01:13:30;;;;;;;8.27;6.40;;;14.10;99.90;;;;;;5036805;28;20053;-90
2022/09/09 01:15:59;;;;;;;10.82;6.35;;;14.20;99.90;;;;;;5050254;28;20041;-90
2022/09/09 01:18:34;;;;;;;10.90;6.38;;;14.20;99.90;;;;;;5036235;28;20037;-89
2022/09/09 01:21:37;;;;;;;15.60;6.90;;;14.20;99.90;;;;;;5045238;28;20044;-89
2022/09/09 01:24:20;;;;;;;20.05;8.05;;;14.20;99.90;;;;;;5016262;28;20042;-88
2022/09/09 01:26:48;;;;;;;27.73;10.38;;;14.20;99.90;;;;;;5045594;28;20052;-87
2022/09/09 01:29:16;;;;;;;33.95;11.32;;;14.10;99.90;;;;;;5053814;28;20099;-86
2022/09/09 01:31:55;;;;;;;51.13;12.38;;;14.10;99.90;;;;;;5036026;28;20430;-85
2022/09/09 01:34:23;;;;;;;48.65;12.02;;;14.10;99.90;;;;;;5035940;28;20056;-85
2022/09/09 01:36:52;;;;;;;28.70;9.07;;;14.00;99.90;;;;;;5053816;28;20037;-84
2022/09/09 01:39:19;;;;;;;23.05;8.60;;;14.00;99.90;;;;;;5052801;28;20041;-84
2022/09/09 01:41:44;;;;;;;39.97;12.82;;;14.10;99.90;;;;;;5053852;28;20052;-85
2022/09/09 01:44:11;;;;;;;32.15;9.88;;;14.10;99.90;;;;;;5035678;28;20053;-85
2022/09/09 01:46:37;;;;;;;25.05;9.45;;;14.10;99.90;;;;;;5053694;28;20045;-86
2022/09/09 01:49:06;;;;;;;69.15;14.27;;;14.20;99.90;;;;;;5030181;28;20038;-86
2022/09/09 01:51:33;;;;;;;30.00;9.10;;;14.20;99.90;;;;;;5043103;28;20103;-86
2022/09/09 01:53:59;;;;;;;24.73;8.15;;;14.20;99.90;;;;;;5014890;28;20486;-86
2022/09/09 01:56:47;;;;;;;35.17;10.05;;;14.30;99.90;;;;;;5014838;28;20044;-86
2022/09/09 01:59:31;;;;;;;70.13;15.20;;;14.30;99.90;;;;;;5035654;28;20051;-86
2022/09/09 02:02:17;;;;;;;75.15;16.17;;;14.30;99.90;;;;;;5037895;28;20056;-86
2022/09/09 02:04:47;;;;;;;21.98;10.00;;;14.30;99.90;;;;;;5035522;28;20573;-86
2022/09/09 02:07:22;;;;;;;64.72;14.75;;;14.40;99.90;;;;;;5035017;28;20529;-86
2022/09/09 02:09:57;;;;;;;26.88;11.82;;;14.40;99.90;;;;;;5035342;28;20056;-86
2022/09/09 02:12:25;;;;;;;65.30;17.33;;;14.30;99.90;;;;;;5053072;28;20053;-87
2022/09/09 02:15:07;;;;;;;24.08;11.18;;;14.30;99.90;;;;;;5035297;28;20068;-87
2022/09/09 02:17:38;;;;;;;21.48;11.57;;;14.30;99.90;;;;;;5036307;28;20056;-87
2022/09/09 02:20:14;;;;;;;42.45;13.10;;;14.30;99.90;;;;;;5053416;28;20130;-88
2022/09/09 02:22:43;;;;;;;38.65;13.30;;;14.30;99.90;;;;;;5036302;28;20115;-87
2022/09/09 02:25:14;;;;;;;27.10;11.90;;;14.30;99.90;;;;;;5052953;28;20067;-87
2022/09/09 02:27:43;;;;;;;64.78;16.95;;;14.30;99.90;;;;;;5035365;28;20110;-88
2022/09/09 02:30:10;;;;;;;60.30;16.65;;;14.30;99.90;;;;;;5052689;28;20041;-87
2022/09/09 02:32:39;;;;;;;20.95;10.38;;;14.30;99.90;;;;;;5019271;28;20088;-88
2022/09/09 02:35:11;;;;;;;30.45;12.10;;;14.30;99.90;;;;;;5052376;28;20037;-88
2022/09/09 02:37:39;;;;;;;110.70;21.45;;;14.30;99.90;;;;;;5035462;28;20568;-89
2022/09/09 02:40:08;;;;;;;33.17;13.50;;;14.20;99.90;;;;;;5035885;28;20498;-87
2022/09/09 02:42:45;;;;;;;51.92;13.20;;;14.30;99.90;;;;;;5056704;28;20045;-88
2022/09/09 02:45:16;;;;;;;51.20;16.50;;;14.20;99.90;;;;;;5056624;28;20067;-87
2022/09/09 02:47:52;;;;;;;;;;;14.20;99.90;;;;;;5057028;28;20045;-87
2022/09/09 02:50:32;;;;;;;30.20;12.95;;;14.20;99.90;;;;;;5038918;28;19921;-89
2022/09/09 02:53:17;;;;;;;38.80;14.75;;;14.20;99.90;;;;;;5038480;28;20124;-88
2022/09/09 02:56:09;;;;;;;165.13;25.83;;;14.10;99.90;;;;;;5038732;28;20043;-87
2022/09/09 02:58:35;;;;;;;172.10;27.13;;;14.10;99.90;;;;;;5039526;28;20060;-88
2022/09/09 03:01:02;;;;;;;86.32;19.42;;;14.20;99.90;;;;;;5055496;28;20033;-88
2022/09/09 03:03:30;;;;;;;171.63;27.15;;;14.20;99.90;;;;;;5056576;28;20045;-88
2022/09/09 03:05:56;;;;;;;38.95;13.88;;;14.20;99.90;;;;;;5038733;28;20059;-88
2022/09/09 03:08:23;;;;;;;99.57;23.13;;;14.20;99.90;;;;;;5038650;28;20048;-87
2022/09/09 03:10:49;;;;;;;109.57;24.50;;;14.20;99.90;;;;;;5037837;28;20041;-89
2022/09/09 03:13:15;;;;;;;43.10;16.52;;;14.20;99.90;;;;;;5056743;28;20072;-86
2022/09/09 03:15:41;;;;;;;124.90;23.00;;;14.20;99.90;;;;;;5038647;28;20048;-89
2022/09/09 03:18:07;;;;;;;116.18;24.08;;;14.20;99.90;;;;;;5056165;28;20053;-88
2022/09/09 03:20:33;;;;;;;46.33;15.52;;;14.20;99.90;;;;;;5056250;28;20049;-88
2022/09/09 03:23:00;;;;;;;70.22;19.08;;;14.20;99.90;;;;;;5021126;28;20059;-86
2022/09/09 03:25:26;;;;;;;114.90;21.17;;;14.20;99.90;;;;;;5038615;28;20044;-87
2022/09/09 03:27:54;;;;;;;31.83;13.55;;;14.20;99.90;;;;;;5038523;28;20068;-88
2022/09/09 03:30:25;;;;;;;34.70;12.30;;;14.20;99.90;;;;;;5056035;28;20238;-88
2022/09/09 03:32:51;;;;;;;42.70;12.88;;;14.20;99.90;;;;;;5038626;28;20491;-88
2022/09/09 03:35:17;;;;;;;24.23;12.57;;;14.20;99.90;;;;;;5056152;28;20041;-86
2022/09/09 03:37:43;;;;;;;28.40;12.20;;;14.20;99.90;;;;;;5055507;28;20037;-88
2022/09/09 03:40:10;;;;;;;27.75;12.18;;;14.20;99.90;;;;;;5021982;28;20048;-88
2022/09/09 03:42:36;;;;;;;93.63;19.55;;;14.10;99.90;;;;;;5005592;28;20068;-87
2022/09/09 03:45:07;;;;;;;59.38;15.90;;;14.10;99.90;;;;;;5018227;28;20077;-87
2022/09/09 03:47:33;;;;;;;40.10;14.63;;;14.10;99.90;;;;;;5052699;28;20095;-84
2022/09/09 03:49:59;;;;;;;114.43;20.83;;;14.10;99.90;;;;;;5037668;28;20449;-87
2022/09/09 03:52:26;;;;;;;75.05;16.45;;;14.10;99.90;;;;;;5036368;28;20394;-87
2022/09/09 03:54:52;;;;;;;36.08;13.30;;;14.10;99.90;;;;;;5056116;28;20075;-87
2022/09/09 03:57:18;;;;;;;73.40;17.88;;;14.10;99.90;;;;;;5055666;28;20048;-87
2022/09/09 03:59:44;;;;;;;94.07;19.52;;;14.00;99.90;;;;;;5055310;28;20048;-86
2022/09/09 04:02:10;;;;;;;92.53;19.17;;;14.00;99.90;;;;;;5037616;28;20041;-87
2022/09/09 04:04:35;;;;;;;33.42;13.45;;;14.00;99.90;;;;;;5055299;28;20083;-89
2022/09/09 04:07:02;;;;;;;33.90;14.40;;;14.00;99.90;;;;;;5037620;28;20452;-88
2022/09/09 04:09:28;;;;;;;66.80;18.02;;;14.00;99.90;;;;;;5055395;28;20485;-88
2022/09/09 04:11:54;;;;;;;110.63;21.83;;;13.90;99.90;;;;;;5036855;28;20128;-88
2022/09/09 04:14:21;;;;;;;146.55;23.83;;;13.90;99.90;;;;;;5021405;28;20056;-86
2022/09/09 04:16:46;;;;;;;30.55;15.07;;;13.90;99.90;;;;;;5021412;28;20124;-84
2022/09/09 04:19:14;;;;;;;40.22;16.08;;;13.90;99.90;;;;;;5055030;28;20120;-88
2022/09/09 04:21:41;;;;;;;44.83;17.65;;;13.90;99.90;;;;;;5037286;28;20053;-87
2022/09/09 04:24:08;;;;;;;101.75;21.25;;;13.80;99.90;;;;;;5020291;28;20059;-87
2022/09/09 04:26:36;;;;;;;83.93;19.42;;;13.80;99.90;;;;;;5021182;28;20128;-87
2022/09/09 04:29:03;;;;;;;62.00;17.27;;;13.80;99.90;;;;;;5036722;28;20060;-88
2022/09/09 04:31:31;;;;;;;92.90;21.95;;;13.80;99.90;;;;;;5054913;28;20395;-87
2022/09/09 04:33:57;;;;;;;82.57;21.02;;;13.80;99.90;;;;;;5020825;28;20053;-86
2022/09/09 04:36:23;;;;;;;56.40;18.27;;;13.80;99.90;;;;;;5054987;28;20406;-86
2022/09/09 04:38:49;;;;;;;64.72;17.40;;;13.80;99.90;;;;;;5037331;28;20065;-88
2022/09/09 04:41:16;;;;;;;126.68;24.52;;;13.70;99.90;;;;;;5054806;28;20045;-87
2022/09/09 04:43:42;;;;;;;67.25;19.15;;;13.70;99.90;;;;;;5037071;28;20041;-87
2022/09/09 04:46:08;;;;;;;36.17;17.05;;;13.60;99.90;;;;;;5036560;28;20469;-87
2022/09/09 04:48:34;;;;;;;75.57;19.33;;;13.70;99.90;;;;;;5053616;28;20037;-87
2022/09/09 04:51:07;;;;;;;39.25;14.48;;;13.60;99.90;;;;;;5036505;28;20041;-84
2022/09/09 04:53:37;;;;;;;32.38;15.68;;;13.60;99.90;;;;;;5053398;28;20049;-86
2022/09/09 04:56:15;;;;;;;112.75;23.27;;;13.60;99.90;;;;;;5054656;28;20045;-87
2022/09/09 04:58:42;;;;;;;50.88;18.10;;;13.50;99.90;;;;;;5020019;28;20520;-86
2022/09/09 05:01:13;;;;;;;50.08;16.38;;;13.50;99.90;;;;;;5017881;28;20054;-87
2022/09/09 05:03:39;;;;;;;78.40;20.25;;;13.50;99.90;;;;;;5018536;28;20045;-88
2022/09/09 05:06:06;;;;;;;51.22;18.13;;;13.50;99.90;;;;;;5039326;28;20395;-87
2022/09/09 05:08:32;;;;;;;29.80;15.85;;;13.40;99.90;;;;;;5025809;28;20045;-87
2022/09/09 05:10:59;;;;;;;30.50;15.20;;;13.40;99.90;;;;;;5052345;28;20090;-85
2022/09/09 05:13:26;;;;;;;48.25;17.40;;;13.40;99.90;;;;;;5040880;28;20052;-83
2022/09/09 05:15:53;;;;;;;85.50;22.02;;;13.40;99.90;;;;;;5043904;28;20418;-86
2022/09/09 05:18:18;;;;;;;45.63;17.63;;;13.30;99.90;;;;;;5066212;28;20036;-87
2022/09/09 05:20:44;;;;;;;32.75;16.50;;;13.30;99.90;;;;;;5074269;28;20055;-89
2022/09/09 05:23:11;;;;;;;115.22;24.10;;;13.30;99.90;;;;;;5036327;28;20090;-88
2022/09/09 05:25:37;;;;;;;78.45;20.48;;;13.30;99.90;;;;;;5034739;28;20048;-86
2022/09/09 05:28:03;;;;;;;47.70;16.55;;;13.20;99.90;;;;;;5033296;28;20041;-87
2022/09/09 05:30:29;;;;;;;39.60;15.07;;;13.30;99.90;;;;;;5034552;28;20045;-86
2022/09/09 05:32:57;;;;;;;55.63;19.05;;;13.30;99.90;;;;;;5034277;28;20087;-87
2022/09/09 05:35:23;;;;;;;55.15;18.95;;;13.30;99.90;;;;;;5047799;28;20056;-87
2022/09/09 05:37:49;;;;;;;51.15;18.73;;;13.30;99.90;;;;;;5052314;28;20464;-86
2022/09/09 05:40:14;;;;;;;28.73;15.60;;;13.40;99.90;;;;;;5052059;28;20049;-86
2022/09/09 05:42:41;;;;;;;27.73;14.13;;;13.50;99.90;;;;;;5052103;28;20506;-87
2022/09/09 05:45:08;;;;;;;89.68;20.23;;;13.50;99.90;;;;;;5018311;28;20079;-87
2022/09/09 05:47:35;;;;;;;31.63;16.42;;;13.50;99.90;;;;;;5036174;28;20129;-87
2022/09/09 05:50:01;;;;;;;122.18;24.05;;;13.60;99.90;;;;;;5053925;28;20041;-87
2022/09/09 05:52:27;;;;;;;100.10;22.92;;;13.60;99.90;;;;;;5053347;28;20049;-87
2022/09/09 05:54:54;;;;;;;132.45;24.98;;;13.60;99.90;;;;;;5036233;28;20052;-87
2022/09/09 05:57:20;;;;;;;37.22;16.88;;;13.70;99.90;;;;;;5053729;28;20469;-87
2022/09/09 05:59:46;;;;;;;44.42;17.67;;;13.70;99.90;;;;;;5036082;28;20080;-86
2022/09/09 06:02:13;;;;;;;70.70;20.40;;;13.70;99.90;;;;;;5019597;28;20488;-85
2022/09/09 06:04:39;;;;;;;49.97;17.20;;;13.70;99.90;;;;;;5036193;28;20443;-88
2022/09/09 06:07:05;;;;;;;28.15;14.93;;;13.70;99.90;;;;;;5035457;28;20148;-87
2022/09/09 06:09:31;;;;;;;51.50;17.45;;;13.70;99.90;;;;;;5035958;28;20532;-86
2022/09/09 06:11:58;;;;;;;37.05;16.05;;;13.70;99.90;;;;;;5035542;28;20060;-88
2022/09/09 06:14:25;;;;;;;62.45;19.05;;;13.90;99.90;;;;;;5035647;28;20406;-86
2022/09/09 06:16:51;;;;;;;80.22;19.48;;;13.80;99.90;;;;;;5021524;28;20056;-88
2022/09/09 06:19:17;;;;;;;30.23;15.63;;;13.80;99.90;;;;;;5053601;28;20048;-86
2022/09/09 06:21:44;;;;;;;46.63;16.40;;;13.80;99.90;;;;;;5035842;28;20045;-84
2022/09/09 06:24:10;;;;;;;40.38;16.05;;;13.80;99.90;;;;;;5035500;28;20053;-88
2022/09/09 06:26:42;;;;;;;58.92;17.77;;;13.90;99.90;;;;;;5035572;28;20052;-88
2022/09/09 06:29:08;;;;;;;20.85;11.80;;;13.90;99.90;;;;;;5053911;28;20402;-86
2022/09/09 06:31:36;;;;;;;20.15;11.85;;;13.90;99.90;;;;;;5053328;28;20041;-89
2022/09/09 06:34:05;;;;;;;53.67;16.35;;;13.90;99.90;;;;;;5053264;28;20391;-85
2022/09/09 06:36:33;;;;;;;37.88;15.65;;;13.80;99.90;;;;;;5053549;28;20044;-89
2022/09/09 06:38:59;;;;;;;23.33;12.82;;;13.80;99.90;;;;;;5036023;28;20045;-92
2022/09/09 06:41:28;;;;;;;27.33;13.80;;;13.80;99.90;;;;;;5053824;28;20071;-87
2022/09/09 06:43:55;;;;;;;18.70;11.75;;;13.90;99.90;;;;;;5054538;28;20088;-89
2022/09/09 06:46:23;;;;;;;40.65;16.02;;;13.90;99.90;;;;;;5019888;28;20404;-88
2022/09/09 06:48:49;;;;;;;35.03;15.00;;;14.00;99.90;;;;;;5036413;28;20056;-86
2022/09/09 06:51:17;;;;;;;26.00;13.43;;;14.10;99.90;;;;;;5036562;28;20417;-88
2022/09/09 06:53:45;;;;;;;24.83;13.35;;;14.10;99.90;;;;;;5035907;28;20048;-89
2022/09/09 06:56:13;;;;;;;44.03;16.40;;;14.10;99.90;;;;;;5020152;28;20049;-88
2022/09/09 06:58:43;;;;;;;20.67;12.93;;;14.10;99.90;;;;;;5036206;28;20045;-85
2022/09/09 07:01:14;;;;;;;21.63;12.35;;;14.20;99.90;;;;;;5037207;28;20108;-89
2022/09/09 07:03:41;;;;;;;23.10;12.90;;;14.20;99.90;;;;;;5054488;28;20069;-86
2022/09/09 07:06:09;;;;;;;27.98;14.45;;;14.20;99.90;;;;;;5054223;28;20053;-88
2022/09/09 07:08:34;;;;;;;24.25;11.70;;;14.30;99.90;;;;;;5036941;28;20114;-88
2022/09/09 07:11:06;;;;;;;29.67;13.73;;;14.40;99.90;;;;;;5020095;28;20447;-87
2022/09/09 07:13:32;;;;;;;17.67;10.70;;;14.40;99.90;;;;;;5055701;28;20041;-88
2022/09/09 07:16:09;;;;;;;37.28;13.60;;;14.40;99.90;;;;;;5053243;28;20414;-88
2022/09/09 07:18:35;;;;;;;24.98;12.65;;;14.50;99.90;;;;;;5052930;28;20406;-88
2022/09/09 07:21:02;;;;;;;16.40;10.85;;;14.60;99.90;;;;;;5053060;28;20048;-88
2022/09/09 07:23:30;;;;;;;18.10;10.38;;;14.60;99.90;;;;;;5035146;28;20048;-87
2022/09/09 07:25:56;;;;;;;20.55;11.80;;;14.60;99.90;;;;;;5061202;28;20071;-85
2022/09/09 07:28:23;;;;;;;29.75;13.38;;;14.70;99.90;;;;;;5045965;28;20399;-87
2022/09/09 07:31:03;;;;;;;23.00;11.77;;;14.80;99.90;;;;;;5027480;28;20084;-87
2022/09/09 07:33:30;;;;;;;37.00;14.70;;;14.90;99.90;;;;;;5062322;28;20049;-84
2022/09/09 07:36:04;;;;;;;34.47;12.13;;;15.10;99.90;;;;;;5039059;28;20049;-88
2022/09/09 07:38:30;;;;;;;26.02;12.73;;;15.20;99.90;;;;;;5038739;28;20048;-88
2022/09/09 07:41:06;;;;;;;19.25;10.77;;;15.20;99.90;;;;;;5022617;28;20048;-89
2022/09/09 07:43:33;;;;;;;14.70;10.20;;;15.30;99.90;;;;;;5056539;28;20056;-86
2022/09/09 07:46:01;;;;;;;23.98;11.93;;;15.40;99.90;;;;;;5038890;28;20110;-88
2022/09/09 07:48:27;;;;;;;19.95;10.00;;;15.30;99.90;;;;;;5056484;28;20052;-87
2022/09/09 07:51:02;;;;;;;16.40;8.60;;;15.40;99.90;;;;;;5057209;28;20102;-90
2022/09/09 07:53:28;;;;;;;18.58;9.98;;;15.40;99.90;;;;;;5038957;28;20048;-88
2022/09/09 07:55:55;;;;;;;15.50;9.45;;;15.50;99.90;;;;;;5040008;28;20088;-87
2022/09/09 07:58:21;;;;;;;14.57;7.38;;;15.50;99.90;;;;;;5022498;28;20053;-88
2022/09/09 08:00:47;;;;;;;15.38;8.20;;;15.60;99.90;;;;;;5056217;28;20049;-88
2022/09/09 08:03:13;;;;;;;14.07;7.20;;;15.60;99.90;;;;;;5038371;28;20099;-87
2022/09/09 08:05:39;;;;;;;16.17;8.18;;;15.70;99.90;;;;;;5021861;28;20060;-88
2022/09/09 08:08:05;;;;;;;13.60;7.07;;;15.80;99.90;;;;;;5038194;28;20048;-89
2022/09/09 08:10:30;;;;;;;15.02;8.18;;;15.90;99.90;;;;;;5029968;28;20045;-88
2022/09/09 08:12:56;;;;;;;10.93;5.60;;;16.00;99.90;;;;;;5041282;28;20041;-89
2022/09/09 08:15:22;;;;;;;14.15;7.13;;;16.00;99.90;;;;;;5054068;28;20049;-88
2022/09/09 08:17:48;;;;;;;13.15;6.45;;;16.20;99.90;;;;;;5045345;28;20077;-88
2022/09/09 08:20:14;;;;;;;12.82;5.55;;;16.20;99.90;;;;;;5039482;28;20049;-88
2022/09/09 08:22:41;;;;;;;9.90;5.22;;;16.30;99.90;;;;;;5023587;28;20053;-88
2022/09/09 08:25:08;;;;;;;14.93;5.38;;;16.30;99.90;;;;;;5039445;28;20053;-93
2022/09/09 08:27:34;;;;;;;10.60;6.00;;;16.40;99.90;;;;;;5038628;28;20045;-90
2022/09/09 08:29:59;;;;;;;14.15;5.53;;;16.50;99.90;;;;;;5056926;28;20094;-89
2022/09/09 08:32:26;;;;;;;15.55;5.03;;;16.50;99.90;;;;;;5038443;28;20053;-86
2022/09/09 08:34:51;;;;;;;15.80;5.65;;;16.50;99.90;;;;;;5055743;28;20044;-89
2022/09/09 08:37:17;;;;;;;11.73;5.57;;;16.50;99.90;;;;;;5038151;28;20055;-89
2022/09/09 08:39:43;;;;;;;8.50;3.38;;;16.60;99.90;;;;;;5038036;28;20053;-88
2022/09/09 08:42:21;;;;;;;15.82;3.90;;;16.70;99.90;;;;;;5021781;28;20049;-90
2022/09/09 08:45:00;;;;;;;6.57;3.35;;;16.70;99.90;;;;;;5038632;28;20055;-90
2022/09/09 08:48:01;;;;;;;7.40;3.13;;;16.80;99.90;;;;;;5059021;28;20133;-87
2022/09/09 08:50:38;;;;;;;;;;;17.10;99.90;;;;;;5022006;28;20178;-90
2022/09/09 08:53:24;;;;;;;9.77;3.55;;;17.10;99.90;;;;;;5037490;28;19924;-89
2022/09/09 08:55:55;;;;;;;9.80;3.88;;;17.00;99.90;;;;;;5037463;28;20106;-89
2022/09/09 08:58:23;;;;;;;11.00;3.70;;;17.10;99.90;;;;;;5037387;28;20189;-89
2022/09/09 09:01:02;;;;;;;9.52;3.80;;;17.00;99.90;;;;;;5020845;28;20056;-88
2022/09/09 09:04:07;;;;;;;10.45;3.55;;;16.90;99.90;;;;;;5055326;28;20048;-92
2022/09/09 09:06:36;;;;;;;10.27;3.20;;;17.00;99.90;;;;;;4985400;28;20054;-89
2022/09/09 09:09:08;;;;;;;9.93;3.08;;;17.60;99.90;;;;;;5021448;28;20092;-89
2022/09/09 09:12:00;;;;;;;9.98;2.80;;;17.90;99.90;;;;;;5017845;28;20175;-89
2022/09/09 09:14:30;;;;;;;10.45;2.90;;;18.20;99.90;;;;;;5034973;28;20398;-86
2022/09/09 09:17:05;;;;;;;11.98;3.08;;;18.30;99.90;;;;;;5017265;28;20598;-88
2022/09/09 09:19:34;;;;;;;11.35;3.25;;;18.20;99.90;;;;;;5017791;28;20403;-90
2022/09/09 09:22:26;;;;;;;8.48;2.58;;;17.90;99.90;;;;;;5035773;28;20089;-92
2022/09/09 09:24:57;;;;;;;8.52;2.63;;;18.00;99.90;;;;;;5035014;28;20045;-90
2022/09/09 09:27:32;;;;;;;13.55;2.90;;;18.30;99.90;;;;;;5034806;28;20049;-89
2022/09/09 09:30:01;;;;;;;13.77;2.90;;;18.30;99.90;;;;;;5017091;28;20041;-91
2022/09/09 09:32:31;;;;;;;7.38;2.17;;;18.20;99.90;;;;;;5034323;28;20525;-87
2022/09/09 09:34:58;;;;;;;9.10;2.28;;;18.00;99.90;;;;;;5017335;28;20052;-90
2022/09/09 09:37:31;;;;;;;10.48;2.00;;;17.80;99.90;;;;;;5033452;28;20045;-88
2022/09/09 09:40:18;;;;;;;11.70;2.58;;;17.70;99.90;;;;;;5016961;28;20056;-90
2022/09/09 09:43:08;;;;;;;9.27;2.00;;;17.60;99.90;;;;;;5034075;28;20498;-91
2022/09/09 09:45:48;;;;;;;8.02;2.25;;;17.50;99.90;;;;;;5016689;28;20046;-90
2022/09/09 09:48:14;;;;;;;10.70;2.10;;;17.60;99.90;;;;;;5034557;28;20394;-92
2022/09/09 09:51:10;;;;;;;11.85;2.75;;;17.60;99.90;;;;;;5015755;28;20128;-90
2022/09/09 09:53:38;;;;;;;8.15;2.05;;;17.70;99.90;;;;;;5032417;28;20061;-86
2022/09/09 09:56:11;;;;;;;11.55;2.50;;;17.70;99.90;;;;;;5034091;28;20049;-89
2022/09/09 09:58:46;;;;;;;9.57;2.53;;;17.80;99.90;;;;;;5033954;28;20049;-89
2022/09/09 10:01:27;;;;;;;8.52;2.20;;;18.10;99.90;;;;;;5016372;28;20111;-87
2022/09/09 10:04:01;;;;;;;;;;;18.50;99.90;;;;;;5016978;28;20053;-87
2022/09/09 10:06:36;;;;;;;8.23;2.78;;;18.80;99.90;;;;;;5016109;28;19971;-89
2022/09/09 10:09:04;;;;;;;8.15;1.98;;;18.80;99.90;;;;;;5033871;28;20495;-88
2022/09/09 10:11:42;;;;;;;7.00;1.67;;;18.90;99.90;;;;;;5033845;28;20050;-88
2022/09/09 10:14:17;;;;;;;8.60;1.90;;;18.90;99.90;;;;;;5033674;28;20048;-91
2022/09/09 10:17:02;;;;;;;5.35;1.70;;;19.00;99.90;;;;;;5016134;28;20042;-90
2022/09/09 10:19:35;;;;;;;6.00;1.52;;;18.90;99.90;;;;;;5033798;28;20048;-88
2022/09/09 10:22:10;;;;;;;7.75;1.63;;;18.90;99.90;;;;;;5033677;28;20491;-90
2022/09/09 10:25:01;;;;;;;6.18;1.63;;;18.80;99.90;;;;;;5015463;28;20111;-88
2022/09/09 10:27:44;;;;;;;11.05;1.83;;;18.80;99.90;;;;;;5033524;28;20037;-88
2022/09/09 10:30:12;;;;;;;7.63;1.70;;;18.80;99.90;;;;;;5015694;28;20099;-88
2022/09/09 10:32:48;;;;;;;8.00;1.80;;;18.80;99.90;;;;;;5015723;28;20495;-91
2022/09/09 10:35:30;;;;;;;12.60;1.98;;;18.70;99.90;;;;;;5032629;28;20085;-87
2022/09/09 10:38:17;;;;;;;9.13;1.63;;;18.60;99.90;;;;;;5034076;28;20124;-88
2022/09/09 10:40:51;;;;;;;7.82;1.88;;;18.50;99.90;;;;;;5018786;28;20045;-88
2022/09/09 10:43:20;;;;;;;7.75;1.80;;;18.30;99.90;;;;;;5015421;28;20056;-86
2022/09/09 10:46:04;;;;;;;7.90;1.77;;;18.20;99.90;;;;;;5033302;28;20064;-88
2022/09/09 10:49:04;;;;;;;10.05;1.67;;;18.10;99.90;;;;;;5015704;28;20465;-88
2022/09/09 10:51:40;;;;;;;10.80;1.75;;;18.10;99.90;;;;;;5015444;28;20068;-88
2022/09/09 10:54:46;;;;;;;7.75;1.52;;;18.20;99.90;;;;;;4999357;28;20106;-91
2022/09/09 10:57:45;;;;;;;11.23;1.88;;;18.40;99.90;;;;;;5007565;28;20097;-88
2022/09/09 11:00:21;;;;;;;8.18;1.88;;;18.60;99.90;;;;;;5033772;28;20077;-88
2022/09/09 11:02:57;;;;;;;8.00;1.67;;;18.70;99.90;;;;;;5019580;28;20083;-87
2022/09/09 11:05:31;;;;;;;9.85;1.80;;;18.80;99.90;;;;;;5036545;28;20052;-88
2022/09/09 11:08:11;;;;;;;10.52;2.00;;;18.90;99.90;;;;;;5022161;28;20064;-89
2022/09/09 11:10:45;;;;;;;8.57;2.22;;;18.90;99.90;;;;;;5056995;28;20052;-88
2022/09/09 11:13:43;;;;;;;9.70;1.65;;;18.70;99.90;;;;;;5039769;28;20110;-90
2022/09/09 11:16:25;;;;;;;10.95;1.92;;;18.50;99.90;;;;;;5031963;28;20057;-88
2022/09/09 11:18:58;;;;;;;7.38;1.70;;;18.40;99.90;;;;;;5057097;28;20041;-87
2022/09/09 11:21:33;;;;;;;5.93;1.33;;;18.20;99.90;;;;;;5039499;28;20084;-88
2022/09/09 11:24:12;;;;;;;6.50;1.55;;;18.20;99.90;;;;;;5039033;28;20095;-90
2022/09/09 11:26:49;;;;;;;9.93;1.73;;;18.00;99.90;;;;;;5056658;28;20509;-87
2022/09/09 11:29:34;;;;;;;7.40;1.65;;;17.90;99.90;;;;;;5056795;28;20407;-86
2022/09/09 11:32:05;;;;;;;6.05;1.40;;;18.00;99.90;;;;;;5039583;28;20045;-87
2022/09/09 11:34:57;;;;;;;9.85;1.90;;;18.10;99.90;;;;;;5056407;28;20048;-87
2022/09/09 11:37:37;;;;;;;6.40;1.55;;;18.30;99.90;;;;;;5056253;28;20068;-87
2022/09/09 11:40:25;;;;;;;8.38;1.70;;;18.70;99.90;;;;;;5022774;28;20098;-87
2022/09/09 11:43:05;;;;;;;5.60;1.15;;;19.30;99.90;;;;;;5039474;28;20103;-87
2022/09/09 11:45:33;;;;;;;6.63;1.50;;;19.80;99.90;;;;;;5057846;28;20128;-88
2022/09/09 11:48:00;;;;;;;6.35;1.50;;;20.10;99.90;;;;;;5039274;28;20049;-88
2022/09/09 11:50:30;;;;;;;7.57;1.65;;;20.20;99.90;;;;;;5056751;28;20524;-86
2022/09/09 11:53:20;;;;;;;6.95;1.60;;;20.30;99.90;;;;;;5057163;28;20053;-87
2022/09/09 11:55:46;;;;;;;6.90;1.60;;;20.60;99.90;;;;;;5058132;28;20056;-86
2022/09/09 11:58:12;;;;;;;4.50;1.15;;;20.80;99.90;;;;;;5039892;28;20053;-88
2022/09/09 12:00:49;;;;;;;6.05;1.60;;;20.80;99.90;;;;;;5023444;28;20049;-87
2022/09/09 12:03:48;;;;;;;10.60;2.25;;;20.60;99.90;;;;;;5058127;28;20044;-87
2022/09/09 12:06:41;;;;;;;7.75;1.50;;;20.30;99.90;;;;;;5042045;28;20060;-86
2022/09/09 12:09:23;;;;;;;6.30;1.40;;;19.90;99.90;;;;;;5040499;28;20061;-87
2022/09/09 12:11:50;;;;;;;5.82;1.30;;;19.70;99.90;;;;;;5044419;28;20041;-86
2022/09/09 12:14:45;;;;;;;7.70;1.70;;;19.60;99.90;;;;;;5044525;28;20045;-87
2022/09/09 12:17:23;;;;;;;7.97;1.50;;;19.60;99.90;;;;;;5024911;28;20118;-87
2022/09/09 12:20:08;;;;;;;6.25;1.48;;;19.80;99.90;;;;;;5056809;28;20128;-86
2022/09/09 12:23:00;;;;;;;5.80;1.45;;;20.20;99.90;;;;;;5038264;28;20049;-87
2022/09/09 12:25:52;;;;;;;7.60;1.58;;;20.40;99.90;;;;;;5038519;28;20124;-87
2022/09/09 12:28:23;;;;;;;7.63;1.48;;;20.30;99.90;;;;;;5008029;28;20163;-87
2022/09/09 12:31:17;;;;;;;8.60;1.70;;;19.90;99.90;;;;;;5056939;28;20383;-88
2022/09/09 12:33:45;;;;;;;6.63;1.27;;;19.60;99.90;;;;;;5037614;28;20469;-85
2022/09/09 12:36:22;;;;;;;8.25;1.50;;;19.60;99.90;;;;;;5055134;28;20491;-87
2022/09/09 12:38:50;;;;;;;5.30;1.00;;;19.70;99.90;;;;;;5038288;28;20092;-87
2022/09/09 12:41:21;;;;;;;5.15;0.90;;;20.00;99.90;;;;;;5055260;28;20084;-88
2022/09/09 12:43:46;;;;;;;;;;;20.30;99.90;;;;;;5055412;28;20048;-87
2022/09/09 12:46:42;;;;;;;5.55;0.95;;;20.70;99.90;;;;;;5037043;28;19920;-90
2022/09/09 12:49:34;;;;;;;4.85;0.98;;;21.00;99.90;;;;;;5035464;28;20053;-86
2022/09/09 12:52:16;;;;;;;5.82;1.38;;;20.90;99.90;;;;;;5020939;28;20132;-86
2022/09/09 12:54:48;;;;;;;6.13;1.40;;;20.60;99.90;;;;;;5054673;28;20056;-83
2022/09/09 12:57:15;;;;;;;5.65;0.93;;;20.20;99.90;;;;;;5037084;28;20037;-90
2022/09/09 12:59:44;;;;;;;4.13;0.95;;;19.90;99.90;;;;;;5054819;28;20091;-86
2022/09/09 13:02:44;;;;;;;7.35;1.27;;;19.80;99.90;;;;;;5055028;28;20045;-87
2022/09/09 13:05:20;;;;;;;4.75;1.63;;;19.90;99.90;;;;;;5054729;28;20187;-91